sensor_id;sensor_type;location;lat;lon;timestamp;temperature;humidity
12841;DHT22;6487;48.626;12.486;2023-03-01T00:01:48;3.30;94.80
12841;DHT22;6487;48.626;12.486;2023-03-01T00:04:16;3.20;94.70
12841;DHT22;6487;48.626;12.486;2023-03-01T00:06:45;3.10;94.70
12841;DHT22;6487;48.626;12.486;2023-03-01T00:09:14;3.20;94.70
12841;DHT22;6487;48.626;12.486;2023-03-01T00:11:42;3.30;94.70
12841;DHT22;6487;48.626;12.486;2023-03-01T00:14:11;3.20;94.90
12841;DHT22;6487;48.626;12.486;2023-03-01T00:16:41;3.20;94.90
12841;DHT22;6487;48.626;12.486;2023-03-01T00:19:17;3.20;94.90
12841;DHT22;6487;48.626;12.486;2023-03-01T00:21:46;3.20;94.90
12841;DHT22;6487;48.626;12.486;2023-03-01T00:24:15;3.10;94.80
12841;DHT22;6487;48.626;12.486;2023-03-01T00:26:44;3.10;94.70
12841;DHT22;6487;48.626;12.486;2023-03-01T00:29:13;3.10;94.70
12841;DHT22;6487;48.626;12.486;2023-03-01T00:31:41;3.10;94.60
12841;DHT22;6487;48.626;12.486;2023-03-01T00:34:09;3.00;94.50
12841;DHT22;6487;48.626;12.486;2023-03-01T00:36:39;3.00;94.60
12841;DHT22;6487;48.626;12.486;2023-03-01T00:39:10;2.80;94.40
12841;DHT22;6487;48.626;12.486;2023-03-01T00:41:40;2.90;94.20
12841;DHT22;6487;48.626;12.486;2023-03-01T00:44:09;2.80;94.20
12841;DHT22;6487;48.626;12.486;2023-03-01T00:46:37;2.80;94.00
12841;DHT22;6487;48.626;12.486;2023-03-01T00:49:06;2.70;94.00
12841;DHT22;6487;48.626;12.486;2023-03-01T00:51:36;2.70;94.00
12841;DHT22;6487;48.626;12.486;2023-03-01T00:54:06;2.60;93.80
12841;DHT22;6487;48.626;12.486;2023-03-01T00:56:35;2.70;93.70
12841;DHT22;6487;48.626;12.486;2023-03-01T00:59:04;2.60;93.70
12841;DHT22;6487;48.626;12.486;2023-03-01T01:01:32;2.60;93.80
12841;DHT22;6487;48.626;12.486;2023-03-01T01:04:02;2.70;93.60
12841;DHT22;6487;48.626;12.486;2023-03-01T01:06:33;2.60;93.60
12841;DHT22;6487;48.626;12.486;2023-03-01T01:09:06;2.60;93.60
12841;DHT22;6487;48.626;12.486;2023-03-01T01:11:35;2.60;93.50
12841;DHT22;6487;48.626;12.486;2023-03-01T01:14:04;2.60;93.60
12841;DHT22;6487;48.626;12.486;2023-03-01T01:16:32;2.70;93.50
12841;DHT22;6487;48.626;12.486;2023-03-01T01:19:00;2.60;93.40
12841;DHT22;6487;48.626;12.486;2023-03-01T01:21:29;2.40;93.30
12841;DHT22;6487;48.626;12.486;2023-03-01T01:23:59;2.40;93.60
12841;DHT22;6487;48.626;12.486;2023-03-01T01:26:29;2.40;93.80
12841;DHT22;6487;48.626;12.486;2023-03-01T01:29:01;2.30;93.80
12841;DHT22;6487;48.626;12.486;2023-03-01T01:31:30;2.20;93.90
12841;DHT22;6487;48.626;12.486;2023-03-01T01:34:00;2.20;93.90
12841;DHT22;6487;48.626;12.486;2023-03-01T01:36:29;2.20;93.90
12841;DHT22;6487;48.626;12.486;2023-03-01T01:39:00;2.20;94.00
12841;DHT22;6487;48.626;12.486;2023-03-01T01:41:29;2.10;94.00
12841;DHT22;6487;48.626;12.486;2023-03-01T01:44:15;2.10;94.10
12841;DHT22;6487;48.626;12.486;2023-03-01T01:46:49;2.00;94.10
12841;DHT22;6487;48.626;12.486;2023-03-01T01:49:29;2.00;94.10
12841;DHT22;6487;48.626;12.486;2023-03-01T01:52:08;2.10;94.10
12841;DHT22;6487;48.626;12.486;2023-03-01T01:54:46;2.00;94.10
12841;DHT22;6487;48.626;12.486;2023-03-01T01:57:21;1.90;94.20
12841;DHT22;6487;48.626;12.486;2023-03-01T01:59:52;1.80;94.30
12841;DHT22;6487;48.626;12.486;2023-03-01T02:02:22;1.80;94.50
12841;DHT22;6487;48.626;12.486;2023-03-01T02:04:56;1.70;94.50
12841;DHT22;6487;48.626;12.486;2023-03-01T02:07:30;1.70;94.70
12841;DHT22;6487;48.626;12.486;2023-03-01T02:10:00;1.70;94.80
12841;DHT22;6487;48.626;12.486;2023-03-01T02:12:30;1.70;94.70
12841;DHT22;6487;48.626;12.486;2023-03-01T02:14:59;1.70;94.70
12841;DHT22;6487;48.626;12.486;2023-03-01T02:17:27;1.70;94.60
12841;DHT22;6487;48.626;12.486;2023-03-01T02:20:06;1.70;94.60
12841;DHT22;6487;48.626;12.486;2023-03-01T02:22:40;1.70;94.80
12841;DHT22;6487;48.626;12.486;2023-03-01T02:25:22;1.60;94.90
12841;DHT22;6487;48.626;12.486;2023-03-01T02:28:01;1.60;95.10
12841;DHT22;6487;48.626;12.486;2023-03-01T02:30:35;1.50;95.10
12841;DHT22;6487;48.626;12.486;2023-03-01T02:33:25;1.70;95.20
12841;DHT22;6487;48.626;12.486;2023-03-01T02:35:54;1.60;95.10
12841;DHT22;6487;48.626;12.486;2023-03-01T02:38:23;1.50;95.40
12841;DHT22;6487;48.626;12.486;2023-03-01T02:40:52;1.50;95.10
12841;DHT22;6487;48.626;12.486;2023-03-01T02:43:23;1.50;95.20
12841;DHT22;6487;48.626;12.486;2023-03-01T02:45:58;1.50;95.20
12841;DHT22;6487;48.626;12.486;2023-03-01T02:48:27;1.30;95.40
12841;DHT22;6487;48.626;12.486;2023-03-01T02:51:04;1.40;95.50
12841;DHT22;6487;48.626;12.486;2023-03-01T02:53:41;1.40;95.50
12841;DHT22;6487;48.626;12.486;2023-03-01T02:56:10;1.40;95.30
12841;DHT22;6487;48.626;12.486;2023-03-01T02:58:40;1.30;95.40
12841;DHT22;6487;48.626;12.486;2023-03-01T03:01:13;1.10;95.80
12841;DHT22;6487;48.626;12.486;2023-03-01T03:03:43;1.10;95.90
12841;DHT22;6487;48.626;12.486;2023-03-01T03:06:12;1.00;95.90
12841;DHT22;6487;48.626;12.486;2023-03-01T03:08:41;1.00;96.10
12841;DHT22;6487;48.626;12.486;2023-03-01T03:11:10;1.10;95.90
12841;DHT22;6487;48.626;12.486;2023-03-01T03:13:39;1.00;95.90
12841;DHT22;6487;48.626;12.486;2023-03-01T03:16:16;0.90;96.00
12841;DHT22;6487;48.626;12.486;2023-03-01T03:18:44;1.00;96.10
12841;DHT22;6487;48.626;12.486;2023-03-01T03:21:13;0.90;96.10
12841;DHT22;6487;48.626;12.486;2023-03-01T03:23:43;0.90;96.40
12841;DHT22;6487;48.626;12.486;2023-03-01T03:26:11;0.70;96.40
12841;DHT22;6487;48.626;12.486;2023-03-01T03:28:41;0.80;96.40
12841;DHT22;6487;48.626;12.486;2023-03-01T03:31:10;0.80;96.20
12841;DHT22;6487;48.626;12.486;2023-03-01T03:33:39;0.90;96.20
12841;DHT22;6487;48.626;12.486;2023-03-01T03:36:08;0.90;96.20
12841;DHT22;6487;48.626;12.486;2023-03-01T03:38:39;0.90;96.10
12841;DHT22;6487;48.626;12.486;2023-03-01T03:41:08;0.90;96.00
12841;DHT22;6487;48.626;12.486;2023-03-01T03:43:38;1.00;95.90
12841;DHT22;6487;48.626;12.486;2023-03-01T03:46:07;0.90;95.90
12841;DHT22;6487;48.626;12.486;2023-03-01T03:48:39;0.90;95.80
12841;DHT22;6487;48.626;12.486;2023-03-01T03:51:10;0.90;96.00
12841;DHT22;6487;48.626;12.486;2023-03-01T03:53:39;0.80;96.00
12841;DHT22;6487;48.626;12.486;2023-03-01T03:56:08;0.70;96.10
12841;DHT22;6487;48.626;12.486;2023-03-01T03:58:36;0.60;96.30
12841;DHT22;6487;48.626;12.486;2023-03-01T04:01:06;0.60;96.40
12841;DHT22;6487;48.626;12.486;2023-03-01T04:03:34;0.60;96.40
12841;DHT22;6487;48.626;12.486;2023-03-01T04:06:05;0.70;96.30
12841;DHT22;6487;48.626;12.486;2023-03-01T04:08:33;0.70;96.20
12841;DHT22;6487;48.626;12.486;2023-03-01T04:11:03;0.70;96.10
12841;DHT22;6487;48.626;12.486;2023-03-01T04:13:46;0.70;96.20
12841;DHT22;6487;48.626;12.486;2023-03-01T04:16:14;0.70;96.20
12841;DHT22;6487;48.626;12.486;2023-03-01T04:18:42;0.60;96.30
12841;DHT22;6487;48.626;12.486;2023-03-01T04:21:12;0.60;96.70
12841;DHT22;6487;48.626;12.486;2023-03-01T04:23:41;0.50;96.60
12841;DHT22;6487;48.626;12.486;2023-03-01T04:26:09;0.50;96.50
12841;DHT22;6487;48.626;12.486;2023-03-01T04:28:39;0.50;96.60
12841;DHT22;6487;48.626;12.486;2023-03-01T04:31:14;0.50;96.60
12841;DHT22;6487;48.626;12.486;2023-03-01T04:33:45;0.40;97.10
12841;DHT22;6487;48.626;12.486;2023-03-01T04:36:17;0.40;97.00
12841;DHT22;6487;48.626;12.486;2023-03-01T04:38:47;0.40;96.70
12841;DHT22;6487;48.626;12.486;2023-03-01T04:41:17;0.40;96.70
12841;DHT22;6487;48.626;12.486;2023-03-01T04:43:46;0.50;96.60
12841;DHT22;6487;48.626;12.486;2023-03-01T04:46:18;0.50;96.50
12841;DHT22;6487;48.626;12.486;2023-03-01T04:48:48;0.50;96.50
12841;DHT22;6487;48.626;12.486;2023-03-01T04:51:18;0.50;96.50
12841;DHT22;6487;48.626;12.486;2023-03-01T04:53:47;0.50;96.40
12841;DHT22;6487;48.626;12.486;2023-03-01T04:56:15;0.50;96.40
12841;DHT22;6487;48.626;12.486;2023-03-01T04:58:45;0.40;96.30
12841;DHT22;6487;48.626;12.486;2023-03-01T05:01:16;0.40;96.30
12841;DHT22;6487;48.626;12.486;2023-03-01T05:03:46;0.40;96.40
12841;DHT22;6487;48.626;12.486;2023-03-01T05:06:17;0.40;96.30
12841;DHT22;6487;48.626;12.486;2023-03-01T05:08:47;0.40;96.20
12841;DHT22;6487;48.626;12.486;2023-03-01T05:11:15;0.40;96.20
12841;DHT22;6487;48.626;12.486;2023-03-01T05:13:44;0.40;96.40
12841;DHT22;6487;48.626;12.486;2023-03-01T05:16:13;0.30;96.40
12841;DHT22;6487;48.626;12.486;2023-03-01T05:18:41;0.30;96.50
12841;DHT22;6487;48.626;12.486;2023-03-01T05:21:11;0.30;96.40
12841;DHT22;6487;48.626;12.486;2023-03-01T05:23:44;0.30;96.50
12841;DHT22;6487;48.626;12.486;2023-03-01T05:26:14;0.30;96.60
12841;DHT22;6487;48.626;12.486;2023-03-01T05:28:59;0.30;96.70
12841;DHT22;6487;48.626;12.486;2023-03-01T05:31:27;0.30;96.70
12841;DHT22;6487;48.626;12.486;2023-03-01T05:33:57;0.20;96.60
12841;DHT22;6487;48.626;12.486;2023-03-01T05:36:25;0.20;96.70
12841;DHT22;6487;48.626;12.486;2023-03-01T05:38:55;0.00;97.10
12841;DHT22;6487;48.626;12.486;2023-03-01T05:41:24;-0.10;97.30
12841;DHT22;6487;48.626;12.486;2023-03-01T05:43:52;0.10;97.40
12841;DHT22;6487;48.626;12.486;2023-03-01T05:46:21;-0.10;97.30
12841;DHT22;6487;48.626;12.486;2023-03-01T05:48:51;-0.10;97.50
12841;DHT22;6487;48.626;12.486;2023-03-01T05:51:19;-0.10;97.40
12841;DHT22;6487;48.626;12.486;2023-03-01T05:53:48;-0.10;97.30
12841;DHT22;6487;48.626;12.486;2023-03-01T05:56:18;0.00;97.30
12841;DHT22;6487;48.626;12.486;2023-03-01T05:58:49;-0.10;97.20
12841;DHT22;6487;48.626;12.486;2023-03-01T06:01:17;0.00;97.20
12841;DHT22;6487;48.626;12.486;2023-03-01T06:03:45;-0.10;97.30
12841;DHT22;6487;48.626;12.486;2023-03-01T06:06:14;0.00;97.10
12841;DHT22;6487;48.626;12.486;2023-03-01T06:08:42;-0.10;97.10
12841;DHT22;6487;48.626;12.486;2023-03-01T06:11:10;-0.10;97.50
12841;DHT22;6487;48.626;12.486;2023-03-01T06:13:41;-0.10;97.60
12841;DHT22;6487;48.626;12.486;2023-03-01T06:16:10;0.00;97.50
12841;DHT22;6487;48.626;12.486;2023-03-01T06:18:39;0.00;97.40
12841;DHT22;6487;48.626;12.486;2023-03-01T06:21:08;0.00;97.40
12841;DHT22;6487;48.626;12.486;2023-03-01T06:23:37;0.00;97.50
12841;DHT22;6487;48.626;12.486;2023-03-01T06:26:06;0.00;97.40
12841;DHT22;6487;48.626;12.486;2023-03-01T06:31:10;0.00;97.40
12841;DHT22;6487;48.626;12.486;2023-03-01T06:33:39;0.00;97.50
12841;DHT22;6487;48.626;12.486;2023-03-01T06:36:08;0.00;97.50
12841;DHT22;6487;48.626;12.486;2023-03-01T06:38:37;0.00;97.70
12841;DHT22;6487;48.626;12.486;2023-03-01T06:41:07;0.00;97.90
12841;DHT22;6487;48.626;12.486;2023-03-01T06:43:35;0.00;97.80
12841;DHT22;6487;48.626;12.486;2023-03-01T06:46:04;0.00;97.90
12841;DHT22;6487;48.626;12.486;2023-03-01T06:48:34;0.10;97.80
12841;DHT22;6487;48.626;12.486;2023-03-01T06:51:03;0.10;98.00
12841;DHT22;6487;48.626;12.486;2023-03-01T06:53:32;0.10;98.00
12841;DHT22;6487;48.626;12.486;2023-03-01T06:56:00;0.20;98.30
12841;DHT22;6487;48.626;12.486;2023-03-01T06:58:28;0.20;98.40
12841;DHT22;6487;48.626;12.486;2023-03-01T07:00:56;0.20;98.30
12841;DHT22;6487;48.626;12.486;2023-03-01T07:03:25;0.20;98.20
12841;DHT22;6487;48.626;12.486;2023-03-01T07:05:55;0.30;98.10
12841;DHT22;6487;48.626;12.486;2023-03-01T07:08:23;0.30;98.00
12841;DHT22;6487;48.626;12.486;2023-03-01T07:10:55;0.30;98.20
12841;DHT22;6487;48.626;12.486;2023-03-01T07:13:24;0.40;98.00
12841;DHT22;6487;48.626;12.486;2023-03-01T07:15:52;0.30;98.00
12841;DHT22;6487;48.626;12.486;2023-03-01T07:18:20;0.40;98.00
12841;DHT22;6487;48.626;12.486;2023-03-01T07:20:49;0.60;98.10
12841;DHT22;6487;48.626;12.486;2023-03-01T07:23:18;0.70;98.30
12841;DHT22;6487;48.626;12.486;2023-03-01T07:25:51;0.80;98.10
12841;DHT22;6487;48.626;12.486;2023-03-01T07:28:22;1.00;98.10
12841;DHT22;6487;48.626;12.486;2023-03-01T07:30:50;1.10;97.60
12841;DHT22;6487;48.626;12.486;2023-03-01T07:33:18;1.30;97.70
12841;DHT22;6487;48.626;12.486;2023-03-01T07:35:47;1.50;97.40
12841;DHT22;6487;48.626;12.486;2023-03-01T07:38:15;1.70;97.50
12841;DHT22;6487;48.626;12.486;2023-03-01T07:40:45;1.90;97.30
12841;DHT22;6487;48.626;12.486;2023-03-01T07:43:13;2.10;97.10
12841;DHT22;6487;48.626;12.486;2023-03-01T07:45:42;2.30;96.70
12841;DHT22;6487;48.626;12.486;2023-03-01T07:48:10;2.50;96.30
12841;DHT22;6487;48.626;12.486;2023-03-01T07:50:38;2.50;95.70
12841;DHT22;6487;48.626;12.486;2023-03-01T07:53:07;2.80;95.70
12841;DHT22;6487;48.626;12.486;2023-03-01T07:55:36;3.00;95.50
12841;DHT22;6487;48.626;12.486;2023-03-01T07:58:05;3.20;95.30
12841;DHT22;6487;48.626;12.486;2023-03-01T08:00:34;3.50;95.10
12841;DHT22;6487;48.626;12.486;2023-03-01T08:03:02;3.60;94.80
12841;DHT22;6487;48.626;12.486;2023-03-01T08:05:31;3.80;94.60
12841;DHT22;6487;48.626;12.486;2023-03-01T08:08:00;4.00;94.60
12841;DHT22;6487;48.626;12.486;2023-03-01T08:10:28;4.20;94.00
12841;DHT22;6487;48.626;12.486;2023-03-01T08:12:56;4.40;93.60
12841;DHT22;6487;48.626;12.486;2023-03-01T08:15:26;4.50;93.20
12841;DHT22;6487;48.626;12.486;2023-03-01T08:17:54;4.50;92.40
12841;DHT22;6487;48.626;12.486;2023-03-01T08:20:22;4.80;92.50
12841;DHT22;6487;48.626;12.486;2023-03-01T08:22:51;4.90;92.40
12841;DHT22;6487;48.626;12.486;2023-03-01T08:25:19;5.20;92.30
12841;DHT22;6487;48.626;12.486;2023-03-01T08:27:47;5.30;92.10
12841;DHT22;6487;48.626;12.486;2023-03-01T08:30:16;5.50;91.40
12841;DHT22;6487;48.626;12.486;2023-03-01T08:32:46;5.80;91.20
12841;DHT22;6487;48.626;12.486;2023-03-01T08:35:15;5.90;91.00
12841;DHT22;6487;48.626;12.486;2023-03-01T08:37:43;6.00;90.50
12841;DHT22;6487;48.626;12.486;2023-03-01T08:40:13;6.10;90.10
12841;DHT22;6487;48.626;12.486;2023-03-01T08:42:41;6.20;88.80
12841;DHT22;6487;48.626;12.486;2023-03-01T08:45:11;6.50;90.40
12841;DHT22;6487;48.626;12.486;2023-03-01T08:47:41;6.60;89.80
12841;DHT22;6487;48.626;12.486;2023-03-01T08:50:11;6.90;89.00
12841;DHT22;6487;48.626;12.486;2023-03-01T08:52:39;7.00;88.50
12841;DHT22;6487;48.626;12.486;2023-03-01T08:55:08;7.20;88.00
12841;DHT22;6487;48.626;12.486;2023-03-01T08:57:37;7.30;85.70
12841;DHT22;6487;48.626;12.486;2023-03-01T09:00:07;7.40;85.90
12841;DHT22;6487;48.626;12.486;2023-03-01T09:02:36;7.50;85.70
12841;DHT22;6487;48.626;12.486;2023-03-01T09:05:05;7.60;85.20
12841;DHT22;6487;48.626;12.486;2023-03-01T09:07:36;7.60;85.00
12841;DHT22;6487;48.626;12.486;2023-03-01T09:10:05;7.70;85.40
12841;DHT22;6487;48.626;12.486;2023-03-01T09:12:34;8.00;84.10
12841;DHT22;6487;48.626;12.486;2023-03-01T09:15:03;8.10;83.20
12841;DHT22;6487;48.626;12.486;2023-03-01T09:17:32;8.30;82.40
12841;DHT22;6487;48.626;12.486;2023-03-01T09:20:00;8.40;82.10
12841;DHT22;6487;48.626;12.486;2023-03-01T09:22:33;7.70;80.80
12841;DHT22;6487;48.626;12.486;2023-03-01T09:25:03;8.00;79.30
12841;DHT22;6487;48.626;12.486;2023-03-01T09:27:32;7.80;79.60
12841;DHT22;6487;48.626;12.486;2023-03-01T09:30:01;7.50;78.50
12841;DHT22;6487;48.626;12.486;2023-03-01T09:32:30;7.70;81.00
12841;DHT22;6487;48.626;12.486;2023-03-01T09:34:58;7.80;79.90
12841;DHT22;6487;48.626;12.486;2023-03-01T09:37:32;8.00;78.50
12841;DHT22;6487;48.626;12.486;2023-03-01T09:40:00;7.90;77.80
12841;DHT22;6487;48.626;12.486;2023-03-01T09:42:33;8.00;76.80
12841;DHT22;6487;48.626;12.486;2023-03-01T09:45:05;8.10;78.50
12841;DHT22;6487;48.626;12.486;2023-03-01T09:47:36;7.90;78.30
12841;DHT22;6487;48.626;12.486;2023-03-01T09:50:11;8.00;77.20
12841;DHT22;6487;48.626;12.486;2023-03-01T09:52:43;8.10;77.00
12841;DHT22;6487;48.626;12.486;2023-03-01T09:55:26;8.10;76.20
12841;DHT22;6487;48.626;12.486;2023-03-01T09:58:04;8.10;76.90
12841;DHT22;6487;48.626;12.486;2023-03-01T10:00:42;8.30;76.80
12841;DHT22;6487;48.626;12.486;2023-03-01T10:03:16;8.60;78.40
12841;DHT22;6487;48.626;12.486;2023-03-01T10:05:55;8.90;77.10
12841;DHT22;6487;48.626;12.486;2023-03-01T10:08:38;8.90;76.50
12841;DHT22;6487;48.626;12.486;2023-03-01T10:11:19;9.10;76.30
12841;DHT22;6487;48.626;12.486;2023-03-01T10:13:55;9.20;74.90
12841;DHT22;6487;48.626;12.486;2023-03-01T10:16:32;9.20;75.40
12841;DHT22;6487;48.626;12.486;2023-03-01T10:19:06;9.40;75.60
12841;DHT22;6487;48.626;12.486;2023-03-01T10:21:43;9.70;76.50
12841;DHT22;6487;48.626;12.486;2023-03-01T10:24:15;9.60;73.90
12841;DHT22;6487;48.626;12.486;2023-03-01T10:26:54;9.50;74.30
12841;DHT22;6487;48.626;12.486;2023-03-01T10:29:27;9.20;74.50
12841;DHT22;6487;48.626;12.486;2023-03-01T10:31:59;9.50;74.30
12841;DHT22;6487;48.626;12.486;2023-03-01T10:34:29;9.70;75.20
12841;DHT22;6487;48.626;12.486;2023-03-01T10:37:09;9.80;76.40
12841;DHT22;6487;48.626;12.486;2023-03-01T10:39:55;9.60;74.00
12841;DHT22;6487;48.626;12.486;2023-03-01T10:42:37;9.80;74.70
12841;DHT22;6487;48.626;12.486;2023-03-01T10:45:24;10.00;74.30
12841;DHT22;6487;48.626;12.486;2023-03-01T10:48:12;10.00;73.40
12841;DHT22;6487;48.626;12.486;2023-03-01T10:50:44;10.00;73.00
12841;DHT22;6487;48.626;12.486;2023-03-01T10:53:25;10.20;75.20
12841;DHT22;6487;48.626;12.486;2023-03-01T10:56:01;10.10;74.10
12841;DHT22;6487;48.626;12.486;2023-03-01T10:58:33;10.20;72.60
12841;DHT22;6487;48.626;12.486;2023-03-01T11:01:04;10.30;74.10
12841;DHT22;6487;48.626;12.486;2023-03-01T11:03:35;10.40;73.30
12841;DHT22;6487;48.626;12.486;2023-03-01T11:06:19;10.30;74.60
12841;DHT22;6487;48.626;12.486;2023-03-01T11:08:49;10.60;73.90
12841;DHT22;6487;48.626;12.486;2023-03-01T11:11:25;9.90;74.60
12841;DHT22;6487;48.626;12.486;2023-03-01T11:14:05;10.00;73.60
12841;DHT22;6487;48.626;12.486;2023-03-01T11:16:58;10.30;75.60
12841;DHT22;6487;48.626;12.486;2023-03-01T11:19:28;10.20;73.70
12841;DHT22;6487;48.626;12.486;2023-03-01T11:22:02;10.40;73.20
12841;DHT22;6487;48.626;12.486;2023-03-01T11:24:37;10.10;73.10
12841;DHT22;6487;48.626;12.486;2023-03-01T11:27:17;10.10;74.20
12841;DHT22;6487;48.626;12.486;2023-03-01T11:29:54;10.10;74.00
12841;DHT22;6487;48.626;12.486;2023-03-01T11:32:26;10.30;73.60
12841;DHT22;6487;48.626;12.486;2023-03-01T11:35:00;10.50;75.40
12841;DHT22;6487;48.626;12.486;2023-03-01T11:37:35;10.50;74.50
12841;DHT22;6487;48.626;12.486;2023-03-01T11:40:13;10.40;73.40
12841;DHT22;6487;48.626;12.486;2023-03-01T11:42:54;10.60;73.50
12841;DHT22;6487;48.626;12.486;2023-03-01T11:45:37;10.70;74.70
12841;DHT22;6487;48.626;12.486;2023-03-01T11:48:34;10.90;73.20
12841;DHT22;6487;48.626;12.486;2023-03-01T11:51:22;11.00;73.00
12841;DHT22;6487;48.626;12.486;2023-03-01T11:54:09;11.10;73.00
12841;DHT22;6487;48.626;12.486;2023-03-01T11:56:45;11.10;72.60
12841;DHT22;6487;48.626;12.486;2023-03-01T12:02:43;11.20;74.40
12841;DHT22;6487;48.626;12.486;2023-03-01T12:05:56;11.20;73.70
12841;DHT22;6487;48.626;12.486;2023-03-01T12:08:45;11.30;73.30
12841;DHT22;6487;48.626;12.486;2023-03-01T12:11:23;10.90;72.70
12841;DHT22;6487;48.626;12.486;2023-03-01T12:14:25;10.80;74.10
12841;DHT22;6487;48.626;12.486;2023-03-01T12:17:11;10.90;74.80
12841;DHT22;6487;48.626;12.486;2023-03-01T12:20:03;11.10;74.00
12841;DHT22;6487;48.626;12.486;2023-03-01T12:23:15;11.10;74.10
12841;DHT22;6487;48.626;12.486;2023-03-01T12:26:10;11.30;74.50
12841;DHT22;6487;48.626;12.486;2023-03-01T12:31:39;11.40;74.20
12841;DHT22;6487;48.626;12.486;2023-03-01T12:34:43;11.30;75.10
12841;DHT22;6487;48.626;12.486;2023-03-01T12:37:27;11.40;73.80
12841;DHT22;6487;48.626;12.486;2023-03-01T12:40:15;11.50;74.70
12841;DHT22;6487;48.626;12.486;2023-03-01T12:42:57;11.60;74.90
12841;DHT22;6487;48.626;12.486;2023-03-01T12:45:44;11.70;74.30
12841;DHT22;6487;48.626;12.486;2023-03-01T12:48:31;11.90;73.60
12841;DHT22;6487;48.626;12.486;2023-03-01T12:51:12;12.10;73.80
12841;DHT22;6487;48.626;12.486;2023-03-01T12:53:47;12.10;73.80
12841;DHT22;6487;48.626;12.486;2023-03-01T12:56:19;11.90;73.60
12841;DHT22;6487;48.626;12.486;2023-03-01T12:58:57;12.20;73.40
12841;DHT22;6487;48.626;12.486;2023-03-01T13:01:36;12.00;73.20
12841;DHT22;6487;48.626;12.486;2023-03-01T13:04:33;11.80;73.20
12841;DHT22;6487;48.626;12.486;2023-03-01T13:07:16;12.00;73.40
12841;DHT22;6487;48.626;12.486;2023-03-01T13:09:59;12.20;74.60
12841;DHT22;6487;48.626;12.486;2023-03-01T13:12:51;12.20;73.20
12841;DHT22;6487;48.626;12.486;2023-03-01T13:15:35;12.30;74.10
12841;DHT22;6487;48.626;12.486;2023-03-01T13:18:27;12.20;73.50
12841;DHT22;6487;48.626;12.486;2023-03-01T13:20:58;12.20;74.50
12841;DHT22;6487;48.626;12.486;2023-03-01T13:23:30;12.30;75.30
12841;DHT22;6487;48.626;12.486;2023-03-01T13:26:05;12.60;74.60
12841;DHT22;6487;48.626;12.486;2023-03-01T13:31:58;12.30;74.30
12841;DHT22;6487;48.626;12.486;2023-03-01T13:34:49;12.10;73.30
12841;DHT22;6487;48.626;12.486;2023-03-01T13:37:34;12.10;73.50
12841;DHT22;6487;48.626;12.486;2023-03-01T13:43:31;12.30;74.60
12841;DHT22;6487;48.626;12.486;2023-03-01T13:46:02;12.50;74.30
12841;DHT22;6487;48.626;12.486;2023-03-01T13:48:36;12.70;74.30
12841;DHT22;6487;48.626;12.486;2023-03-01T13:51:08;12.70;74.00
12841;DHT22;6487;48.626;12.486;2023-03-01T13:53:40;12.90;74.80
12841;DHT22;6487;48.626;12.486;2023-03-01T13:56:12;13.00;75.30
12841;DHT22;6487;48.626;12.486;2023-03-01T13:58:53;12.90;74.30
12841;DHT22;6487;48.626;12.486;2023-03-01T14:01:27;12.90;74.30
12841;DHT22;6487;48.626;12.486;2023-03-01T14:03:58;12.80;73.80
12841;DHT22;6487;48.626;12.486;2023-03-01T14:06:28;12.30;73.80
12841;DHT22;6487;48.626;12.486;2023-03-01T14:09:04;12.60;75.70
12841;DHT22;6487;48.626;12.486;2023-03-01T14:12:08;12.60;75.90
12841;DHT22;6487;48.626;12.486;2023-03-01T14:14:52;12.50;76.70
12841;DHT22;6487;48.626;12.486;2023-03-01T14:20:28;12.50;77.40
12841;DHT22;6487;48.626;12.486;2023-03-01T14:23:01;12.40;76.80
12841;DHT22;6487;48.626;12.486;2023-03-01T14:25:32;12.10;77.60
12841;DHT22;6487;48.626;12.486;2023-03-01T14:28:04;12.00;78.70
12841;DHT22;6487;48.626;12.486;2023-03-01T14:30:42;11.90;78.40
12841;DHT22;6487;48.626;12.486;2023-03-01T14:33:21;11.80;78.60
12841;DHT22;6487;48.626;12.486;2023-03-01T14:35:55;11.90;78.80
12841;DHT22;6487;48.626;12.486;2023-03-01T14:38:31;11.70;79.10
12841;DHT22;6487;48.626;12.486;2023-03-01T14:41:06;11.50;79.70
12841;DHT22;6487;48.626;12.486;2023-03-01T14:43:36;11.50;80.20
12841;DHT22;6487;48.626;12.486;2023-03-01T14:46:17;11.40;80.50
12841;DHT22;6487;48.626;12.486;2023-03-01T14:48:49;11.30;80.70
12841;DHT22;6487;48.626;12.486;2023-03-01T14:51:18;11.20;81.20
12841;DHT22;6487;48.626;12.486;2023-03-01T14:53:47;11.20;81.20
12841;DHT22;6487;48.626;12.486;2023-03-01T14:56:17;11.00;81.70
12841;DHT22;6487;48.626;12.486;2023-03-01T14:58:46;10.70;82.40
12841;DHT22;6487;48.626;12.486;2023-03-01T15:01:21;10.60;82.90
12841;DHT22;6487;48.626;12.486;2023-03-01T15:03:51;10.50;84.10
12841;DHT22;6487;48.626;12.486;2023-03-01T15:06:21;10.40;84.00
12841;DHT22;6487;48.626;12.486;2023-03-01T15:08:53;10.40;84.10
12841;DHT22;6487;48.626;12.486;2023-03-01T15:11:27;10.40;84.60
12841;DHT22;6487;48.626;12.486;2023-03-01T15:13:57;10.50;84.70
12841;DHT22;6487;48.626;12.486;2023-03-01T15:16:29;10.50;84.40
12841;DHT22;6487;48.626;12.486;2023-03-01T15:19:00;10.40;84.50
12841;DHT22;6487;48.626;12.486;2023-03-01T15:21:32;10.40;84.40
12841;DHT22;6487;48.626;12.486;2023-03-01T15:24:05;10.40;84.70
12841;DHT22;6487;48.626;12.486;2023-03-01T15:26:41;10.30;85.30
12841;DHT22;6487;48.626;12.486;2023-03-01T15:29:16;10.30;85.20
12841;DHT22;6487;48.626;12.486;2023-03-01T15:31:56;10.40;85.30
12841;DHT22;6487;48.626;12.486;2023-03-01T15:34:27;10.30;85.50
12841;DHT22;6487;48.626;12.486;2023-03-01T15:36:58;10.30;85.70
12841;DHT22;6487;48.626;12.486;2023-03-01T15:39:35;10.20;85.90
12841;DHT22;6487;48.626;12.486;2023-03-01T15:42:07;10.30;86.30
12841;DHT22;6487;48.626;12.486;2023-03-01T15:44:40;10.30;85.50
12841;DHT22;6487;48.626;12.486;2023-03-01T15:47:29;10.30;86.00
12841;DHT22;6487;48.626;12.486;2023-03-01T15:49:59;10.00;86.50
12841;DHT22;6487;48.626;12.486;2023-03-01T15:52:32;10.00;85.90
12841;DHT22;6487;48.626;12.486;2023-03-01T15:55:14;9.90;86.60
12841;DHT22;6487;48.626;12.486;2023-03-01T15:57:44;10.00;86.80
12841;DHT22;6487;48.626;12.486;2023-03-01T16:00:14;10.00;87.00
12841;DHT22;6487;48.626;12.486;2023-03-01T16:02:46;10.00;87.10
12841;DHT22;6487;48.626;12.486;2023-03-01T16:05:21;9.90;86.90
12841;DHT22;6487;48.626;12.486;2023-03-01T16:07:51;9.90;87.00
12841;DHT22;6487;48.626;12.486;2023-03-01T16:10:20;9.80;86.70
12841;DHT22;6487;48.626;12.486;2023-03-01T16:12:49;9.90;87.70
12841;DHT22;6487;48.626;12.486;2023-03-01T16:15:20;9.90;86.80
12841;DHT22;6487;48.626;12.486;2023-03-01T16:17:52;9.80;86.90
12841;DHT22;6487;48.626;12.486;2023-03-01T16:20:21;9.70;86.80
12841;DHT22;6487;48.626;12.486;2023-03-01T16:22:55;9.60;86.30
12841;DHT22;6487;48.626;12.486;2023-03-01T16:25:26;9.60;86.40
12841;DHT22;6487;48.626;12.486;2023-03-01T16:27:55;9.50;86.40
12841;DHT22;6487;48.626;12.486;2023-03-01T16:30:25;9.50;86.30
12841;DHT22;6487;48.626;12.486;2023-03-01T16:32:55;9.60;86.10
12841;DHT22;6487;48.626;12.486;2023-03-01T16:35:23;9.40;86.00